Latest Coastal Weather Observations for Albion Park

IDN60701

Issued at 4:52 am EDT Monday 22 December 2014 (issued every 10 minutes, with the page automatically refreshed every 10 minutes)

About coastal observations | Map of coastal stations | Coastal observations for NSW | Marine services | Other Formats
Station Details ID: 068241 Name: WOLLONGONG AIRPORT Lat: -34.56 Lon: 150.79 Height: 8.0 m
Data from the previous 72 hours. | See also: Recent months at Albion Park
Date/Time
EDT
Temp

°C
Wind Pressure Rain
since 9am
mm
Weather Cloud Vis
km
Sea
Height
m
Swell
Dir
 
Speed
knots
Gust
knots
hPa Trend Height
m
Period
s
Dir
22/04:30am 16.5 W 1 4 1014.6 - 0.0 - - 10 - - - -
22/03:30am 17.0 CALM 0 0 1014.7 - 0.0 - - 10 - - - -
22/02:30am 17.3 CALM 0 0 1015.3 - 0.0 - - 10 - - - -
22/02:00am 17.4 CALM 0 0 1015.6 - 0.0 - - 10 - - - -
22/01:30am 17.6 CALM 0 0 1016.0 - 0.0 - - 10 - - - -
22/01:00am 17.9 CALM 0 0 1016.1 - 0.0 - - 10 - - - -
22/12:30am 18.0 WNW 2 3 1016.3 - 0.0 - - 10 - - - -
 
Date/Time
EDT
Temp

°C
Wind Pressure Rain
since 9am
mm
Weather Cloud Vis
km
Sea
Height
m
Swell
Dir
 
Speed
knots
Gust
knots
hPa Trend Height
m
Period
s
Dir
21/11:30pm 18.5 WNW 5 6 1016.5 - 0.0 - - 10 - - - -
21/11:00pm 19.1 WNW 4 5 1016.3 - 0.0 - - 10 - - - -
21/10:30pm 19.5 WNW 5 7 1016.6 - 0.0 - - 10 - - - -
21/10:00pm 20.5 NW 5 6 1016.5 - 0.0 - - 10 - - - -
21/09:30pm 22.0 NE 9 13 1016.5 - 0.0 - - 10 - - - -
21/09:00pm 22.2 NNE 10 14 1016.4 - 0.0 - - 10 - - - -
21/08:30pm 22.4 NNE 10 14 1016.0 - 0.0 - - 10 - - - -
21/08:00pm 22.7 NNE 11 15 1015.7 - 0.0 - - 10 - - - -
21/07:30pm 22.9 NE 12 17 1015.4 - 0.0 - - 10 - - - -
21/07:00pm 23.3 NE 15 21 1015.2 - 0.0 - - 10 - - - -
21/06:30pm 24.0 NE 13 18 1015.0 - 0.0 - - 10 - - - -
21/06:00pm 24.3 NE 13 17 1015.0 - 0.0 - - 10 - - - -
21/05:30pm 24.4 NE 14 21 1014.9 - 0.0 - - 10 - - - -
21/05:00pm 24.3 NE 13 19 1015.2 - 0.0 - - 10 - - - -
21/04:30pm 24.6 NE 14 18 1015.3 - 0.0 - - 10 - - - -
21/04:00pm 24.7 NE 15 20 1015.4 - 0.0 - - 10 - - - -
21/03:30pm 24.8 NE 14 19 1015.6 - 0.0 - - 10 - - - -
21/03:00pm 24.8 NE 16 21 1015.7 - 0.0 - - 10 - - - -
21/02:30pm 24.7 NE 17 23 1015.6 - 0.0 - - 10 - - - -
21/02:00pm 24.8 NE 15 21 1016.0 - 0.0 - - 10 - - - -
21/01:30pm 24.8 NE 17 22 1016.4 - 0.0 - - 10 - - - -
21/01:00pm 25.0 NE 17 22 1017.0 - 0.0 - - 10 - - - -
21/12:30pm 25.3 NE 16 20 1017.4 - 0.0 - - 10 - - - -
21/12:00pm 24.8 NE 15 19 1017.5 - 0.0 - - 10 - - - -
21/11:30am 24.2 ENE 14 17 1017.7 - 0.0 - - 10 - - - -
21/11:00am 24.6 NE 12 16 1017.5 - 0.0 - - 10 - - - -
21/10:30am 24.6 N 12 17 1017.7 - 0.0 - - 10 - - - -
21/10:00am 24.2 N 12 19 1017.8 - 0.0 - Partly cloudy 10 - - - -
21/09:30am 23.5 N 9 13 1018.0 - 0.0 - Partly cloudy 10 - - - -
21/09:00am 22.5 N 8 11 1018.3 - 0.0 - - 10 - - - -
21/08:30am 21.7 N 7 10 1018.4 - 0.0 - - 10 - - - -
21/08:00am 20.1 NW 3 4 1018.3 - 0.0 - - 10 - - - -
21/07:30am 18.2 WNW 4 5 1018.1 - 0.0 - - 10 - - - -
21/07:00am 16.0 W 2 3 1017.9 - 0.0 - - 10 - - - -
21/06:30am 14.7 W 2 4 1017.9 - 0.0 - - 10 - - - -
21/06:00am 14.0 CALM 0 3 1017.8 - 0.0 - - 10 - - - -
21/05:30am 14.2 CALM 0 3 1017.6 - 0.0 - Partly cloudy 10 - - - -
21/05:00am 14.3 W 1 4 1017.4 - 0.0 - - 10 - - - -
21/04:30am 14.5 W 2 6 1017.3 - 0.0 - - 10 - - - -
21/04:00am 15.2 WNW 5 6 1017.3 - 0.0 - - 10 - - - -
21/03:30am 15.6 W 1 4 1017.4 - 0.0 - - 10 - - - -
21/03:00am 16.2 W 3 4 1017.5 - 0.0 - Partly cloudy 10 - - - -
21/02:30am 16.7 NW 2 7 1017.6 - 0.0 - Partly cloudy 10 - - - -
21/02:00am 17.1 WNW 1 3 1018.0 - 0.0 - Cloudy 10 - - - -
21/01:30am 16.8 WNW 3 4 1018.2 - 0.0 - Cloudy 10 - - - -
21/01:00am 16.7 W 5 6 1018.6 - 0.0 - Cloudy 10 - - - -
21/12:30am 16.8 WSW 3 4 1018.9 - 0.0 - Cloudy 10 - - - -
21/12:00am 16.4 WSW 5 6 1019.2 - 0.0 - Cloudy 10 - - - -
 
Date/Time
EDT
Temp

°C
Wind Pressure Rain
since 9am
mm
Weather Cloud Vis
km
Sea
Height
m
Swell
Dir
 
Speed
knots
Gust
knots
hPa Trend Height
m
Period
s
Dir
20/11:30pm 16.3 W 6 6 1019.2 - 0.0 - Cloudy 10 - - - -
20/11:00pm 16.3 W 5 6 1019.4 - 0.0 - Partly cloudy 10 - - - -
20/10:30pm 16.3 W 6 7 1019.2 - 0.0 - Partly cloudy 10 - - - -
20/10:00pm 16.4 W 6 6 1019.0 - 0.0 - Partly cloudy 10 - - - -
20/09:30pm 17.1 W 4 5 1018.7 - 0.0 - Partly cloudy 10 - - - -
20/09:00pm 19.4 N 4 6 1018.4 - 0.0 - Mostly clear 10 - - - -
20/08:30pm 19.8 NNE 6 9 1018.1 - 0.0 - Partly cloudy 10 - - - -
20/08:00pm 19.8 NE 8 11 1017.6 - 0.0 - - 10 - - - -
20/07:30pm 20.3 NE 7 10 1017.2 - 0.0 - - 10 - - - -
20/07:00pm 20.6 NE 9 11 1016.7 - 0.0 - - 10 - - - -
20/06:30pm 21.0 NE 9 14 1016.4 - 0.0 - - 10 - - - -
20/06:00pm 21.1 NE 9 15 1016.1 - 0.0 - - 10 - - - -
20/05:30pm 21.1 NE 8 12 1016.2 - 0.0 - - 10 - - - -
20/05:00pm 21.3 NE 8 13 1016.1 - 0.0 - - 10 - - - -
20/04:30pm 21.4 NE 9 13 1016.2 - 0.0 - - 10 - - - -
20/04:00pm 21.7 NE 10 13 1016.5 - 0.0 - - 10 - - - -
20/03:30pm 21.4 NE 10 13 1016.6 - 0.0 - - 10 - - - -
20/03:00pm 21.5 NE 10 15 1016.8 - 0.0 - - 10 - - - -
20/02:30pm 21.7 NE 10 13 1017.0 - 0.0 - - 10 - - - -
20/02:00pm 21.4 NE 9 13 1017.0 - 0.0 - - 10 - - - -
20/01:30pm 21.4 NE 10 13 1017.3 - 0.0 - - 10 - - - -
20/01:00pm 21.4 NE 10 15 1017.6 - 0.0 - - 10 - - - -
20/12:30pm 21.4 NE 9 12 1017.9 - 0.0 - Partly cloudy 10 - - - -
20/12:00pm 20.5 NE 10 12 1018.1 - 0.0 - Mostly clear 10 - - - -
20/11:30am 20.8 NE 8 11 1018.3 - 0.0 - - 10 - - - -
20/11:00am 20.9 ENE 8 10 1018.3 - 0.0 - Partly cloudy 10 - - - -
20/10:30am 20.1 NE 7 10 1018.3 - 0.0 - Partly cloudy 10 - - - -
20/10:00am 19.9 NNE 7 9 1018.5 - 0.0 - Partly cloudy 10 - - - -
20/09:30am 20.3 N 3 6 1018.6 - 0.0 - Partly cloudy 10 - - - -
20/09:00am 19.4 NE 4 7 1018.7 - 0.0 - Cloudy 10 - - - -
20/08:30am 19.2 S 2 4 1018.7 - 0.0 - Partly cloudy 10 - - - -
20/08:00am 18.2 W 4 6 1018.5 - 0.0 - Partly cloudy 10 - - - -
20/07:30am 16.9 W 4 5 1018.4 - 0.0 - Cloudy 10 - - - -
20/07:00am 15.4 WSW 5 6 1018.1 - 0.0 - Partly cloudy 10 - - - -
20/06:30am 15.4 WNW 5 5 1017.9 - 0.0 - Cloudy 10 - - - -
20/06:00am 14.8 SW 1 3 1017.7 - 0.0 - Cloudy 10 - - - -
20/05:30am 14.7 S 2 4 1017.7 - 0.0 - Cloudy 10 - - - -
20/05:00am 14.9 W 3 4 1017.6 - 0.0 - Partly cloudy 10 - - - -
20/04:30am 15.5 SW 3 4 1017.3 - 0.0 - Partly cloudy 10 - - - -
20/04:00am 16.0 WSW 3 5 1017.3 - 0.0 - Partly cloudy 10 - - - -
20/03:30am 16.2 W 4 5 1017.5 - 0.0 - Cloudy 10 - - - -
20/03:00am 16.4 WNW 4 5 1017.7 - 0.0 - Cloudy 10 - - - -
20/02:30am 16.4 CALM 0 0 1017.9 - 0.0 - Cloudy 10 - - - -
20/02:00am 16.7 SSW 3 4 1018.0 - 0.0 - Cloudy 10 - - - -
20/01:30am 16.7 SSW 3 4 1018.3 - 0.0 - Cloudy 10 - - - -
20/01:00am 16.7 S 5 7 1018.5 - 0.0 - Partly cloudy 10 - - - -
20/12:30am 17.0 SSE 4 6 1018.8 - 0.0 - Partly cloudy 10 - - - -
20/12:00am 17.3 SSW 4 5 1019.0 - 0.0 - Cloudy 10 - - - -
 
Date/Time
EDT
Temp

°C
Wind Pressure Rain
since 9am
mm
Weather Cloud Vis
km
Sea
Height
m
Swell
Dir
 
Speed
knots
Gust
knots
hPa Trend Height
m
Period
s
Dir
19/11:30pm 17.7 WSW 3 4 1019.2 - 0.0 - Partly cloudy 10 - - - -
19/11:00pm 17.7 CALM 0 3 1019.3 - 0.0 - Partly cloudy 10 - - - -
19/10:30pm 17.7 SSE 3 5 1018.9 - 0.0 - Partly cloudy 10 - - - -
19/10:00pm 18.0 S 5 7 1018.6 - 0.0 - Cloudy 10 - - - -
19/09:30pm 18.2 S 4 6 1018.3 - 0.0 - Partly cloudy 10 - - - -
19/09:00pm 18.1 SSE 5 7 1018.0 - 0.0 - Cloudy 10 - - - -
19/08:30pm 18.3 SSE 5 8 1017.7 - 0.0 - Cloudy 10 - - - -
19/08:00pm 18.5 SSE 6 8 1017.2 - 0.0 - Partly cloudy 10 - - - -
19/07:30pm 18.6 SSE 5 10 1016.7 - 0.0 - Partly cloudy 10 - - - -
19/07:00pm 18.7 SSE 9 11 1016.0 - 0.0 - Cloudy 10 - - - -
19/06:30pm 19.1 SSE 7 11 1015.4 - 0.0 - Partly cloudy 10 - - - -
19/06:00pm 19.3 SE 8 14 1015.0 - 0.0 - Cloudy 10 - - - -
19/05:30pm 19.4 SE 9 13 1014.6 - 0.0 - Cloudy 10 - - - -
19/05:00pm 19.3 SE 9 15 1014.3 - 0.0 - Cloudy 10 - - - -
19/04:30pm 19.2 ESE 9 13 1014.1 - 0.0 - Cloudy 10 - - - -
19/04:00pm 19.4 SE 10 16 1014.0 - 0.0 - Partly cloudy 10 - - - -
19/03:30pm 19.6 ESE 11 16 1013.9 - 0.0 - Partly cloudy 10 - - - -
19/03:00pm 19.4 SE 10 16 1013.9 - 0.0 - Partly cloudy 10 - - - -
19/02:30pm 20.7 SE 10 15 1013.7 - 0.0 - Partly cloudy 10 - - - -
19/02:00pm 19.8 SE 9 14 1013.6 - 0.0 - Partly cloudy 10 - - - -
19/01:30pm 19.7 ESE 10 16 1013.6 - 0.0 - Cloudy 10 - - - -
19/01:00pm 19.9 ESE 11 18 1013.5 - 0.0 - Cloudy 10 - - - -
19/12:30pm 19.9 SSE 10 15 1013.5 - 0.0 - Cloudy 10 - - - -
19/12:00pm 20.4 SE 12 17 1013.5 - 0.0 - Cloudy 10 - - - -
19/11:30am 20.9 SSE 12 21 1013.3 - 0.0 - Partly cloudy 10 - - - -
19/11:00am 19.5 SSE 15 21 1013.5 - 0.0 - Partly cloudy 10 - - - -
19/10:30am 20.2 SSE 13 19 1013.2 - 0.0 - Partly cloudy 10 - - - -
19/10:00am 19.7 SE 13 19 1013.4 - 0.0 - Partly cloudy 10 - - - -
19/09:30am 20.1 SSE 10 16 1013.1 - 0.0 - Partly cloudy 10 - - - -
19/09:00am 19.4 SSE 10 16 1013.0 - 0.0 - Cloudy 10 - - - -
19/08:30am 20.2 SSE 8 13 1012.8 - 0.0 - Partly cloudy 10 - - - -
19/08:00am 19.2 S 7 11 1012.7 - 0.0 - Partly cloudy 10 - - - -
19/07:30am 18.9 SSE 7 11 1012.3 - 0.0 - - 10 - - - -
19/07:00am 18.0 S 5 7 1012.0 - 0.0 - - 10 - - - -
19/06:30am 16.8 S 4 5 1011.5 - 0.0 - - 10 - - - -
19/06:00am 16.3 S 5 6 1011.2 - 0.0 - - 10 - - - -
19/05:30am 16.6 S 6 9 1010.8 - 0.0 - Partly cloudy 10 - - - -
19/05:00am 17.1 SSE 8 17 1010.5 - 0.0 - Partly cloudy 10 - - - -
19/04:55am 17.2 S 7 17 1010.4 - 0.0 - Partly cloudy 10 - - - -

Other Formats:

Comma delimited format used in spreadsheet applications
http://www.bom.gov.au/fwo/IDN60701/IDN60701.95748.axf

JavaScript Object Notation format (JSON) in row-major order
http://www.bom.gov.au/fwo/IDN60701/IDN60701.95748.json